Nearby METAR Reports

 

CYUL - Montreal/Dorval, Quebec, Canada
Distance from station: ENE 6km
Updated: 01/22/2020 04:00 EST
Overcast
Overcast
 Wind from SW
Wind: SW 20 km/h, Gust: 30 km/h
Temperature: -3°C
Wind Chill: -9°C
Dew Point: -7°C
Humidity: 74%
Barometer: 1025.4 hPa
Clouds: Overcast
Visibility: 24 km
Cloud details: Overcast 1067 m
2020/01/22 09:00 CYUL 220900Z 22011G16KT 15SM OVC035 M03/M07 A3028 RMK SC8 SLP258
CWVQ - Ste Anne De Bell, Quebec, Canada
Distance from station: WSW 10km
Updated: 01/22/2020 04:00 EST

 Wind from WSW
Wind: WSW 19 km/h
Temperature: -3°C
Wind Chill: -9°C
Dew Point: -7°C
Humidity: 74%
2020/01/22 09:00 CWVQ 220900Z AUTO 24010KT M03/M07 RMK AO1 SOG 23 3002 PK WND 22017/0802 SLP256 T10301067
 
CWTA - Mc Tavish (aut), Quebec, Canada
Distance from station: ENE 18km
Updated: 01/22/2020 04:00 EST

 Wind from SW
Wind: SW 7 km/h
Temperature: -3°C
Wind Chill: -6°C
Dew Point: -6°C
Humidity: 80%
2020/01/22 09:00 CWTA 220900Z AUTO 22004KT M03/M06 RMK AO1 SOG 43 3003 SLP256 T10301064
CYMX - Montreal/Mirabel, Quebec, Canada
Distance from station: NW 29km
Updated: 01/22/2020 04:00 EST
Overcast
Overcast
 Wind from SW
Wind: SW 17 km/h
Temperature: -4°C
Wind Chill: -9°C
Dew Point: -7°C
Humidity: 80%
Barometer: 1024.7 hPa
Clouds: Overcast
Visibility: 40 km
Cloud details: Overcast 732 m
2020/01/22 09:00 CYMX 220900Z 23009KT 25SM OVC024 M04/M07 A3026 RMK SC8 SLP253
 
CYHU - Saint Hubert Arp, Quebec, Canada
Distance from station: ENE 31km
Updated: 01/22/2020 04:00 EST
Overcast
Overcast
 Wind from SW
Wind: SW 22 km/h, Gust: 35 km/h
Temperature: -3°C
Wind Chill: -9°C
Dew Point: -7°C
Humidity: 74%
Barometer: 1025.4 hPa
Clouds: Overcast
Visibility: 14 km
Cloud details: Overcast 1036 m
2020/01/22 09:00 CYHU 220900Z AUTO 23012G19KT 9SM OVC034 M03/M07 A3028 RMK SLP257
CWIT - St Clothilde (a, Quebec, Canada
Distance from station: SSE 33km
Updated: 01/22/2020 04:00 EST

 Wind from WSW
Wind: WSW 15 km/h, Gust: 30 km/h
Temperature: -2°C
Wind Chill: -7°C
Dew Point: -6°C
Humidity: 74%
2020/01/22 09:00 CWIT 220900Z AUTO 25008G16KT M02/M06 RMK AO1 SOG 23 1002 SLP252 T10211064
 
CWIZ - L'acadie, Quebec, Canada
Distance from station: ESE 41km
Updated: 01/22/2020 04:00 EST

 Wind from S
Wind: S 17 km/h
Temperature: -6°C
Wind Chill: -12°C
Dew Point: -8°C
Humidity: 86%
2020/01/22 09:00 CWIZ 220900Z AUTO 19009KT M06/M08 RMK AO1 SOG 23 T10561077
CWHM - Varennes, Quebec, Canada
Distance from station: NE 45km
Updated: 10/25/2016 10:00 EDT
NOT Current

 Wind from W
Wind: W 19 km/h, Gust: 28 km/h
Temperature: 4°C
Wind Chill: 0°C
Dew Point: -2°C
Humidity: 65%
2016/10/25 14:00 CWHM 251400Z AUTO 28010G15KT 04/M02 RMK AO1 PK WND 28018/1302 T00391017
 
CWEW - L'assomption, Quebec, Canada
Distance from station: NE 50km
Updated: 01/22/2020 04:00 EST

 Wind from SW
Wind: SW 13 km/h
Temperature: -3°C
Wind Chill: -7°C
Dew Point: -6°C
Humidity: 80%
2020/01/22 09:00 CWEW 220900Z AUTO 23007KT M03/M06 RMK AO1 SOG 13 2003 SLP259 T10321055
CWBZ - St Anicet, Quebec, Canada
Distance from station: SW 52km
Updated: 01/22/2020 04:00 EST

 Wind from SW
Wind: SW 24 km/h, Gust: 35 km/h
Temperature: -3°C
Wind Chill: -9°C
Dew Point: -7°C
Humidity: 74%
2020/01/22 09:00 CWBZ 220900Z AUTO 23013G19KT M03/M07 RMK AO1 PK WND 23019/0806 SLP256 T10251071 51001
 
KFSO - Highgate, Vermont, USA
Distance from station: SE 79km
Updated: 01/22/2020 04:35 EST
Overcast
Overcast
 Wind from S
Wind: S 9 km/h
Temperature: -4°C
Wind Chill: -8°C
Dew Point: -8°C
Humidity: 74%
Barometer: 1026.8 hPa
Clouds: Overcast
Visibility: 16 km
Cloud details: Overcast 884 m
2020/01/22 09:35 KFSO 220935Z AUTO 18005KT 10SM OVC029 M04/M08 A3032 RMK AO2 T10371085
CMGB - Granby, Quebec, Canada
Distance from station: E 81km
Updated: 01/22/2020 04:30 EST

 Wind from N
Wind: N 33 km/h
Temperature: -5°C
Wind Chill: -13°C
2020/01/22 09:30 CMGB 220930Z AUTO 00018KT M05/ RMK AO1 SOG 20 2001 SLP262 T1052
 
CWJT - St Jovite (autob, Quebec, Canada
Distance from station: NW 88km
Updated: 01/22/2020 04:00 EST

 Wind from N
Wind: N 39 km/h
Temperature: -6°C
Wind Chill: -16°C
Dew Point: -7°C
Humidity: 93%
2020/01/22 09:00 CWJT 220900Z AUTO 00021KT M06/M07 RMK AO1 SLP253 T10571073 53003
CWFQ - Frelighsburg, Quebec, Canada
Distance from station: ESE 90km
Updated: 01/22/2020 04:00 EST

 Wind from S
Wind: S 9 km/h
Temperature: -7°C
Wind Chill: -12°C
Dew Point: -10°C
Humidity: 79%
2020/01/22 09:00 CWFQ 220900Z AUTO 17005KT M07/M10 RMK AO1 SOG 24 2002 SLP261 T10661101
 
KPBG - Plattsburgh Afb, New York, USA
Distance from station: SSE 93km
Updated: 01/22/2020 03:53 EST
Overcast
Overcast
 Wind from SSE
Wind: SSE 11 km/h
Temperature: -5°C
Wind Chill: -9°C
Dew Point: -9°C
Humidity: 74%
Barometer: 1026.8 hPa
Clouds: Overcast
Visibility: 16 km
Cloud details: Overcast 853 m
2020/01/22 08:53 KPBG 220853Z AUTO 15006KT 10SM OVC028 M05/M09 A3032 RMK AO2 SLP271 T10501089 55003
KMSS - Massena, New York, USA
Distance from station: SW 100km
Updated: 01/22/2020 03:53 EST
Clear
Clear
 Wind from SW
Wind: SW 15 km/h
Temperature: -5°C
Wind Chill: -11°C
Dew Point: -8°C
Humidity: 80%
Barometer: 1026.8 hPa
Clouds: Clear
Visibility: 16 km
2020/01/22 08:53 KMSS 220853Z AUTO 22008KT 10SM CLR M05/M08 A3032 RMK AO2 SLP274 T10501083 50001
 
CWBS - Lac St Pierre (a, Quebec, Canada
Distance from station: NE 106km
Updated: 11/05/2019 18:00 EST
NOT Current

 Wind from SE
Wind: SE 9 km/h
Temperature: 6°C
Wind Chill: 4°C
Dew Point: 0°C
Humidity: 66%
2019/11/05 23:00 CWBS 052300Z AUTO 14005KT 06/M00 RMK AO1 T00551002
KBTV - Burlington, Vermont, USA
Distance from station: SSE 121km
Updated: 01/22/2020 03:54 EST
Overcast
Overcast
 Wind from S
Wind: S 15 km/h
Temperature: -5°C
Wind Chill: -11°C
Dew Point: -11°C
Humidity: 63%
Barometer: 1027.4 hPa
Clouds: Overcast
Visibility: 16 km
Cloud details: Overcast 975 m
2020/01/22 08:54 KBTV 220854Z AUTO 19008KT 10SM OVC032 M05/M11 A3034 RMK AO2 SLP280 T10501106 51001 $
 
KSLK - Saranac Lake, New York, USA
Distance from station: SSW 121km
Updated: 01/22/2020 04:19 EST
Overcast
Overcast
 Wind from SW
Wind: SW 13 km/h
Temperature: -6°C
Wind Chill: -12°C
Dew Point: -8°C
Humidity: 86%
Barometer: 1023.4 hPa
Clouds: Overcast
Visibility: 16 km
Cloud details: Overcast 274 m
2020/01/22 09:19 KSLK 220919Z AUTO 23007KT 10SM OVC009 M06/M08 A3022 RMK AO2 T10561078
CWNQ - Nicolet (autob), Quebec, Canada
Distance from station: NE 123km
Updated: 01/22/2020 18:00 EST

 Wind from SSW
Wind: SSW 13 km/h
Temperature: -11°C
Wind Chill: -18°C
Dew Point: -15°C
Humidity: 73%
2020/01/22 23:00 CWNQ 222300Z AUTO 20007KT M11/M15 RMK AO1 SLP272 T11121154 55005
 
KMWN - Mount Washington, New Hampshire, USA
Distance from station: SE 237km
Updated: 01/22/2020 03:51 EST
Light snow, Showers
Light snow, Showers
 Wind from WNW
Wind: WNW 63 km/h
Summary: Light snow, Showers
Visibility: 104 km
2020/01/22 08:51 KMWN 220851Z 29034KT 65SM -SHSN BKN/// SCT/// BKN010 OVC020 M13/M16 RMK TPS LWR BKN030 TPS LWR SCT055
CYVR - Vancouver Intl A, British Columbia, Canada
Distance from station: NW 3676km
Updated: 01/22/2020 04:00 EST
Overcast
Overcast
 Wind from SSE
Wind: SSE 19 km/h
Temperature: 6°C
Wind Chill: 3°C
Dew Point: 5°C
Humidity: 93%
Barometer: 1011.2 hPa
Clouds: Overcast
Visibility: 24 km
Cloud details: Few Clouds 579 m
Partly cloudy 1128 m
Mostly cloudy 1768 m
Overcast 2225 m
2020/01/22 09:00 CYVR 220900Z 15010KT 15SM FEW019 SCT037 BKN058 OVC073 06/05 A2986 RMK SC1SC3SC3AC2 SC TR SLP112